sensor_id;sensor_type;location;lat;lon;timestamp;temperature;humidity
68128;SHT30;54931;52.098;21.006;2023-06-14T00:02:23;12.76;85.10
68128;SHT30;54931;52.098;21.006;2023-06-14T00:04:51;12.77;85.10
68128;SHT30;54931;52.098;21.006;2023-06-14T00:07:21;12.78;85.10
68128;SHT30;54931;52.098;21.006;2023-06-14T00:10:10;12.78;85.09
68128;SHT30;54931;52.098;21.006;2023-06-14T00:12:39;12.78;85.06
68128;SHT30;54931;52.098;21.006;2023-06-14T00:15:07;12.78;85.02
68128;SHT30;54931;52.098;21.006;2023-06-14T00:17:39;12.79;85.06
68128;SHT30;54931;52.098;21.006;2023-06-14T00:20:06;12.80;85.10
68128;SHT30;54931;52.098;21.006;2023-06-14T00:22:35;12.81;85.09
68128;SHT30;54931;52.098;21.006;2023-06-14T00:25:04;12.83;85.08
68128;SHT30;54931;52.098;21.006;2023-06-14T00:27:33;12.84;85.00
68128;SHT30;54931;52.098;21.006;2023-06-14T00:30:00;12.84;84.99
68128;SHT30;54931;52.098;21.006;2023-06-14T00:32:28;12.83;84.99
68128;SHT30;54931;52.098;21.006;2023-06-14T00:34:56;12.82;85.00
68128;SHT30;54931;52.098;21.006;2023-06-14T00:37:24;12.82;84.99
68128;SHT30;54931;52.098;21.006;2023-06-14T00:39:52;12.81;85.00
68128;SHT30;54931;52.098;21.006;2023-06-14T00:42:26;12.81;85.00
68128;SHT30;54931;52.098;21.006;2023-06-14T00:44:54;12.80;85.00
68128;SHT30;54931;52.098;21.006;2023-06-14T00:47:22;12.80;85.00
68128;SHT30;54931;52.098;21.006;2023-06-14T00:49:50;12.79;85.00
68128;SHT30;54931;52.098;21.006;2023-06-14T00:52:20;12.79;85.00
68128;SHT30;54931;52.098;21.006;2023-06-14T00:54:50;12.79;85.00
68128;SHT30;54931;52.098;21.006;2023-06-14T00:57:18;12.78;85.00
68128;SHT30;54931;52.098;21.006;2023-06-14T00:59:48;12.78;85.00
68128;SHT30;54931;52.098;21.006;2023-06-14T01:02:17;12.80;85.01
68128;SHT30;54931;52.098;21.006;2023-06-14T01:04:45;12.80;85.04
68128;SHT30;54931;52.098;21.006;2023-06-14T01:07:18;12.79;85.00
68128;SHT30;54931;52.098;21.006;2023-06-14T01:13:05;12.79;85.01
68128;SHT30;54931;52.098;21.006;2023-06-14T01:15:37;12.80;85.01
68128;SHT30;54931;52.098;21.006;2023-06-14T01:18:07;12.80;85.01
68128;SHT30;54931;52.098;21.006;2023-06-14T01:20:35;12.80;85.01
68128;SHT30;54931;52.098;21.006;2023-06-14T01:23:05;12.80;85.02
68128;SHT30;54931;52.098;21.006;2023-06-14T01:25:33;12.80;85.02
68128;SHT30;54931;52.098;21.006;2023-06-14T01:28:03;12.79;85.02
68128;SHT30;54931;52.098;21.006;2023-06-14T01:30:37;12.79;85.00
68128;SHT30;54931;52.098;21.006;2023-06-14T01:33:15;12.78;85.00
68128;SHT30;54931;52.098;21.006;2023-06-14T01:35:50;12.78;85.03
68128;SHT30;54931;52.098;21.006;2023-06-14T01:38:19;12.77;85.10
68128;SHT30;54931;52.098;21.006;2023-06-14T01:40:51;12.78;85.09
68128;SHT30;54931;52.098;21.006;2023-06-14T01:43:22;12.78;85.10
68128;SHT30;54931;52.098;21.006;2023-06-14T01:45:53;12.78;85.10
68128;SHT30;54931;52.098;21.006;2023-06-14T01:48:23;12.77;85.10
68128;SHT30;54931;52.098;21.006;2023-06-14T01:50:50;12.76;85.07
68128;SHT30;54931;52.098;21.006;2023-06-14T01:53:20;12.76;85.10
68128;SHT30;54931;52.098;21.006;2023-06-14T01:55:47;12.74;85.10
68128;SHT30;54931;52.098;21.006;2023-06-14T01:58:15;12.73;85.12
68128;SHT30;54931;52.098;21.006;2023-06-14T02:00:43;12.73;85.19
68128;SHT30;54931;52.098;21.006;2023-06-14T02:03:12;12.72;85.16
68128;SHT30;54931;52.098;21.006;2023-06-14T02:05:40;12.73;85.20
68128;SHT30;54931;52.098;21.006;2023-06-14T02:08:09;12.73;85.22
68128;SHT30;54931;52.098;21.006;2023-06-14T02:10:36;12.73;85.23
68128;SHT30;54931;52.098;21.006;2023-06-14T02:13:04;12.74;85.28
68128;SHT30;54931;52.098;21.006;2023-06-14T02:15:32;12.74;85.23
68128;SHT30;54931;52.098;21.006;2023-06-14T02:18:02;12.74;85.20
68128;SHT30;54931;52.098;21.006;2023-06-14T02:20:31;12.73;85.24
68128;SHT30;54931;52.098;21.006;2023-06-14T02:23:00;12.73;85.27
68128;SHT30;54931;52.098;21.006;2023-06-14T02:25:28;12.76;85.30
68128;SHT30;54931;52.098;21.006;2023-06-14T02:27:55;12.77;85.30
68128;SHT30;54931;52.098;21.006;2023-06-14T02:30:23;12.77;85.32
68128;SHT30;54931;52.098;21.006;2023-06-14T02:32:51;12.78;85.31
68128;SHT30;54931;52.098;21.006;2023-06-14T02:35:20;12.78;85.30
68128;SHT30;54931;52.098;21.006;2023-06-14T02:37:49;12.79;85.28
68128;SHT30;54931;52.098;21.006;2023-06-14T02:40:18;12.79;85.26
68128;SHT30;54931;52.098;21.006;2023-06-14T02:42:47;12.79;85.21
68128;SHT30;54931;52.098;21.006;2023-06-14T02:45:15;12.78;85.22
68128;SHT30;54931;52.098;21.006;2023-06-14T02:47:43;12.79;85.22
68128;SHT30;54931;52.098;21.006;2023-06-14T02:50:10;12.79;85.20
68128;SHT30;54931;52.098;21.006;2023-06-14T02:52:38;12.80;85.18
68128;SHT30;54931;52.098;21.006;2023-06-14T02:55:08;12.79;85.21
68128;SHT30;54931;52.098;21.006;2023-06-14T02:57:36;12.78;85.20
68128;SHT30;54931;52.098;21.006;2023-06-14T03:00:05;12.79;85.24
68128;SHT30;54931;52.098;21.006;2023-06-14T03:02:37;12.79;85.24
68128;SHT30;54931;52.098;21.006;2023-06-14T03:05:05;12.79;85.21
68128;SHT30;54931;52.098;21.006;2023-06-14T03:07:35;12.81;85.23
68128;SHT30;54931;52.098;21.006;2023-06-14T03:10:08;12.82;85.21
68128;SHT30;54931;52.098;21.006;2023-06-14T03:12:36;12.84;85.20
68128;SHT30;54931;52.098;21.006;2023-06-14T03:15:04;12.84;85.12
68128;SHT30;54931;52.098;21.006;2023-06-14T03:17:32;12.84;85.11
68128;SHT30;54931;52.098;21.006;2023-06-14T03:20:02;12.86;85.18
68128;SHT30;54931;52.098;21.006;2023-06-14T03:22:31;12.88;85.09
68128;SHT30;54931;52.098;21.006;2023-06-14T03:25:01;12.90;85.10
68128;SHT30;54931;52.098;21.006;2023-06-14T03:27:31;12.91;85.09
68128;SHT30;54931;52.098;21.006;2023-06-14T03:29:59;12.93;85.00
68128;SHT30;54931;52.098;21.006;2023-06-14T03:32:28;12.93;84.91
68128;SHT30;54931;52.098;21.006;2023-06-14T03:34:55;12.95;85.02
68128;SHT30;54931;52.098;21.006;2023-06-14T03:37:23;12.99;85.08
68128;SHT30;54931;52.098;21.006;2023-06-14T03:39:51;13.03;85.10
68128;SHT30;54931;52.098;21.006;2023-06-14T03:42:18;13.08;85.05
68128;SHT30;54931;52.098;21.006;2023-06-14T03:44:46;13.09;84.86
68128;SHT30;54931;52.098;21.006;2023-06-14T03:47:17;13.10;84.81
68128;SHT30;54931;52.098;21.006;2023-06-14T03:49:45;13.13;84.91
68128;SHT30;54931;52.098;21.006;2023-06-14T03:52:13;13.19;84.96
68128;SHT30;54931;52.098;21.006;2023-06-14T03:54:41;13.29;85.04
68128;SHT30;54931;52.098;21.006;2023-06-14T03:57:10;13.40;84.86
68128;SHT30;54931;52.098;21.006;2023-06-14T03:59:38;13.47;84.62
68128;SHT30;54931;52.098;21.006;2023-06-14T04:02:05;13.57;84.67
68128;SHT30;54931;52.098;21.006;2023-06-14T04:04:34;13.71;84.72
68128;SHT30;54931;52.098;21.006;2023-06-14T04:07:02;13.80;84.37
68128;SHT30;54931;52.098;21.006;2023-06-14T04:09:30;13.86;84.04
68128;SHT30;54931;52.098;21.006;2023-06-14T04:11:58;13.90;83.84
68128;SHT30;54931;52.098;21.006;2023-06-14T04:14:26;13.97;83.92
68128;SHT30;54931;52.098;21.006;2023-06-14T04:16:54;14.05;83.90
68128;SHT30;54931;52.098;21.006;2023-06-14T04:19:22;14.08;83.62
68128;SHT30;54931;52.098;21.006;2023-06-14T04:21:50;14.10;83.40
68128;SHT30;54931;52.098;21.006;2023-06-14T04:24:17;14.10;83.19
68128;SHT30;54931;52.098;21.006;2023-06-14T04:26:45;14.17;83.45
68128;SHT30;54931;52.098;21.006;2023-06-14T04:29:15;14.26;83.28
68128;SHT30;54931;52.098;21.006;2023-06-14T04:31:43;14.35;83.37
68128;SHT30;54931;52.098;21.006;2023-06-14T04:34:30;14.43;83.04
68128;SHT30;54931;52.098;21.006;2023-06-14T04:37:17;14.46;82.88
68128;SHT30;54931;52.098;21.006;2023-06-14T04:39:45;14.48;82.80
68128;SHT30;54931;52.098;21.006;2023-06-14T04:42:13;14.48;82.77
68128;SHT30;54931;52.098;21.006;2023-06-14T04:44:42;14.50;82.75
68128;SHT30;54931;52.098;21.006;2023-06-14T04:47:10;14.50;82.64
68128;SHT30;54931;52.098;21.006;2023-06-14T04:49:43;14.49;82.50
68128;SHT30;54931;52.098;21.006;2023-06-14T04:52:11;14.48;82.54
68128;SHT30;54931;52.098;21.006;2023-06-14T04:54:40;14.48;82.46
68128;SHT30;54931;52.098;21.006;2023-06-14T04:57:09;14.47;82.29
68128;SHT30;54931;52.098;21.006;2023-06-14T04:59:40;14.46;82.27
68128;SHT30;54931;52.098;21.006;2023-06-14T05:02:08;14.46;82.29
68128;SHT30;54931;52.098;21.006;2023-06-14T05:04:36;14.45;82.22
68128;SHT30;54931;52.098;21.006;2023-06-14T05:07:09;14.44;82.20
68128;SHT30;54931;52.098;21.006;2023-06-14T05:09:39;14.45;82.17
68128;SHT30;54931;52.098;21.006;2023-06-14T05:12:07;14.44;82.14
68128;SHT30;54931;52.098;21.006;2023-06-14T05:14:35;14.43;82.17
68128;SHT30;54931;52.098;21.006;2023-06-14T05:17:04;14.45;82.21
68128;SHT30;54931;52.098;21.006;2023-06-14T05:19:32;14.49;82.32
68128;SHT30;54931;52.098;21.006;2023-06-14T05:22:00;14.56;82.40
68128;SHT30;54931;52.098;21.006;2023-06-14T05:24:28;14.66;82.50
68128;SHT30;54931;52.098;21.006;2023-06-14T05:26:57;14.77;82.38
68128;SHT30;54931;52.098;21.006;2023-06-14T05:29:25;14.89;81.88
68128;SHT30;54931;52.098;21.006;2023-06-14T05:31:54;14.98;81.76
68128;SHT30;54931;52.098;21.006;2023-06-14T05:34:21;15.10;81.59
68128;SHT30;54931;52.098;21.006;2023-06-14T05:36:49;15.18;81.11
68128;SHT30;54931;52.098;21.006;2023-06-14T05:39:17;15.24;80.90
68128;SHT30;54931;52.098;21.006;2023-06-14T05:41:44;15.32;80.92
68128;SHT30;54931;52.098;21.006;2023-06-14T05:44:12;15.36;80.65
68128;SHT30;54931;52.098;21.006;2023-06-14T05:46:40;15.43;80.68
68128;SHT30;54931;52.098;21.006;2023-06-14T05:49:08;15.49;80.28
68128;SHT30;54931;52.098;21.006;2023-06-14T05:51:35;15.54;79.91
68128;SHT30;54931;52.098;21.006;2023-06-14T05:54:03;15.60;79.54
68128;SHT30;54931;52.098;21.006;2023-06-14T05:56:30;15.62;79.17
68128;SHT30;54931;52.098;21.006;2023-06-14T05:58:58;15.65;79.27
68128;SHT30;54931;52.098;21.006;2023-06-14T06:01:25;15.64;78.64
68128;SHT30;54931;52.098;21.006;2023-06-14T06:03:53;15.62;78.56
68128;SHT30;54931;52.098;21.006;2023-06-14T06:06:21;15.62;78.65
68128;SHT30;54931;52.098;21.006;2023-06-14T06:08:49;15.65;78.67
68128;SHT30;54931;52.098;21.006;2023-06-14T06:11:17;15.65;78.17
68128;SHT30;54931;52.098;21.006;2023-06-14T06:13:45;15.65;78.03
68128;SHT30;54931;52.098;21.006;2023-06-14T06:16:13;15.76;78.22
68128;SHT30;54931;52.098;21.006;2023-06-14T06:18:42;16.02;77.93
68128;SHT30;54931;52.098;21.006;2023-06-14T06:21:10;16.42;77.26
68128;SHT30;54931;52.098;21.006;2023-06-14T06:23:37;16.68;76.27
68128;SHT30;54931;52.098;21.006;2023-06-14T06:26:05;17.18;76.82
68128;SHT30;54931;52.098;21.006;2023-06-14T06:28:33;17.92;76.33
68128;SHT30;54931;52.098;21.006;2023-06-14T06:31:00;18.26;74.24
68128;SHT30;54931;52.098;21.006;2023-06-14T06:33:28;18.41;73.67
68128;SHT30;54931;52.098;21.006;2023-06-14T06:35:56;18.57;73.47
68128;SHT30;54931;52.098;21.006;2023-06-14T06:38:24;18.80;72.32
68128;SHT30;54931;52.098;21.006;2023-06-14T06:40:52;18.88;70.56
68128;SHT30;54931;52.098;21.006;2023-06-14T06:43:21;19.19;69.78
68128;SHT30;54931;52.098;21.006;2023-06-14T06:45:49;19.72;69.07
68128;SHT30;54931;52.098;21.006;2023-06-14T06:48:16;20.12;67.45
68128;SHT30;54931;52.098;21.006;2023-06-14T06:50:44;20.18;65.78
68128;SHT30;54931;52.098;21.006;2023-06-14T06:53:12;19.88;64.99
68128;SHT30;54931;52.098;21.006;2023-06-14T06:55:39;19.73;66.67
68128;SHT30;54931;52.098;21.006;2023-06-14T06:58:07;19.78;66.44
68128;SHT30;54931;52.098;21.006;2023-06-14T07:00:35;19.58;64.69
68128;SHT30;54931;52.098;21.006;2023-06-14T07:03:03;19.34;66.21
68128;SHT30;54931;52.098;21.006;2023-06-14T07:05:31;19.18;65.56
68128;SHT30;54931;52.098;21.006;2023-06-14T07:07:59;19.01;65.40
68128;SHT30;54931;52.098;21.006;2023-06-14T07:10:27;19.01;65.26
68128;SHT30;54931;52.098;21.006;2023-06-14T07:12:55;19.16;65.20
68128;SHT30;54931;52.098;21.006;2023-06-14T07:15:23;19.29;65.46
68128;SHT30;54931;52.098;21.006;2023-06-14T07:17:51;19.47;65.87
68128;SHT30;54931;52.098;21.006;2023-06-14T07:20:20;19.48;65.64
68128;SHT30;54931;52.098;21.006;2023-06-14T07:22:49;19.43;65.00
68128;SHT30;54931;52.098;21.006;2023-06-14T07:25:17;19.36;64.99
68128;SHT30;54931;52.098;21.006;2023-06-14T07:27:47;19.33;65.00
68128;SHT30;54931;52.098;21.006;2023-06-14T07:30:15;19.48;64.37
68128;SHT30;54931;52.098;21.006;2023-06-14T07:32:42;19.57;63.75
68128;SHT30;54931;52.098;21.006;2023-06-14T07:35:10;19.72;62.76
68128;SHT30;54931;52.098;21.006;2023-06-14T07:37:38;19.79;63.04
68128;SHT30;54931;52.098;21.006;2023-06-14T07:40:06;19.89;63.06
68128;SHT30;54931;52.098;21.006;2023-06-14T07:42:35;19.76;62.75
68128;SHT30;54931;52.098;21.006;2023-06-14T07:45:03;19.58;62.58
68128;SHT30;54931;52.098;21.006;2023-06-14T07:47:33;19.34;63.08
68128;SHT30;54931;52.098;21.006;2023-06-14T07:50:02;19.13;63.16
68128;SHT30;54931;52.098;21.006;2023-06-14T07:52:31;19.01;63.15
68128;SHT30;54931;52.098;21.006;2023-06-14T07:54:58;18.92;63.82
68128;SHT30;54931;52.098;21.006;2023-06-14T07:57:27;18.88;64.52
68128;SHT30;54931;52.098;21.006;2023-06-14T07:59:55;18.92;64.93
68128;SHT30;54931;52.098;21.006;2023-06-14T08:02:23;19.01;64.84
68128;SHT30;54931;52.098;21.006;2023-06-14T08:04:51;19.07;64.29
68128;SHT30;54931;52.098;21.006;2023-06-14T08:07:19;19.04;63.22
68128;SHT30;54931;52.098;21.006;2023-06-14T08:09:47;18.94;63.18
68128;SHT30;54931;52.098;21.006;2023-06-14T08:12:15;18.94;63.39
68128;SHT30;54931;52.098;21.006;2023-06-14T08:14:42;19.02;63.47
68128;SHT30;54931;52.098;21.006;2023-06-14T08:17:10;19.12;63.32
68128;SHT30;54931;52.098;21.006;2023-06-14T08:19:37;19.35;63.94
68128;SHT30;54931;52.098;21.006;2023-06-14T08:22:05;19.59;63.06
68128;SHT30;54931;52.098;21.006;2023-06-14T08:24:33;19.75;62.21
68128;SHT30;54931;52.098;21.006;2023-06-14T08:27:00;19.94;61.67
68128;SHT30;54931;52.098;21.006;2023-06-14T08:29:28;20.03;60.98
68128;SHT30;54931;52.098;21.006;2023-06-14T08:31:58;20.13;60.62
68128;SHT30;54931;52.098;21.006;2023-06-14T08:34:26;20.20;59.93
68128;SHT30;54931;52.098;21.006;2023-06-14T08:36:54;20.30;60.59
68128;SHT30;54931;52.098;21.006;2023-06-14T08:39:22;20.43;60.52
68128;SHT30;54931;52.098;21.006;2023-06-14T08:41:49;20.55;60.26
68128;SHT30;54931;52.098;21.006;2023-06-14T08:44:20;20.57;60.07
68128;SHT30;54931;52.098;21.006;2023-06-14T08:46:48;20.68;60.55
68128;SHT30;54931;52.098;21.006;2023-06-14T08:49:18;20.75;59.69
68128;SHT30;54931;52.098;21.006;2023-06-14T08:51:49;20.98;59.40
68128;SHT30;54931;52.098;21.006;2023-06-14T08:54:30;21.05;58.24
68128;SHT30;54931;52.098;21.006;2023-06-14T08:56:59;21.36;58.80
68128;SHT30;54931;52.098;21.006;2023-06-14T08:59:27;21.63;58.39
68128;SHT30;54931;52.098;21.006;2023-06-14T09:01:56;21.98;58.38
68128;SHT30;54931;52.098;21.006;2023-06-14T09:04:24;22.60;57.00
68128;SHT30;54931;52.098;21.006;2023-06-14T09:06:56;22.99;55.27
68128;SHT30;54931;52.098;21.006;2023-06-14T09:09:25;22.91;53.15
68128;SHT30;54931;52.098;21.006;2023-06-14T09:11:53;22.62;53.57
68128;SHT30;54931;52.098;21.006;2023-06-14T09:14:23;22.59;55.29
68128;SHT30;54931;52.098;21.006;2023-06-14T09:16:52;23.00;55.69
68128;SHT30;54931;52.098;21.006;2023-06-14T09:19:21;23.34;54.73
68128;SHT30;54931;52.098;21.006;2023-06-14T09:21:51;23.60;54.09
68128;SHT30;54931;52.098;21.006;2023-06-14T09:24:20;23.77;53.02
68128;SHT30;54931;52.098;21.006;2023-06-14T09:26:48;23.86;51.96
68128;SHT30;54931;52.098;21.006;2023-06-14T09:29:17;23.70;51.16
68128;SHT30;54931;52.098;21.006;2023-06-14T09:31:46;23.86;51.18
68128;SHT30;54931;52.098;21.006;2023-06-14T09:34:15;24.14;51.00
68128;SHT30;54931;52.098;21.006;2023-06-14T09:36:46;24.40;49.99
68128;SHT30;54931;52.098;21.006;2023-06-14T09:39:16;24.45;49.01
68128;SHT30;54931;52.098;21.006;2023-06-14T09:41:45;24.38;49.92
68128;SHT30;54931;52.098;21.006;2023-06-14T09:44:13;24.16;49.52
68128;SHT30;54931;52.098;21.006;2023-06-14T09:46:41;24.01;50.55
68128;SHT30;54931;52.098;21.006;2023-06-14T09:49:08;24.04;50.27
68128;SHT30;54931;52.098;21.006;2023-06-14T09:51:36;24.04;48.76
68128;SHT30;54931;52.098;21.006;2023-06-14T09:54:16;23.98;49.07
68128;SHT30;54931;52.098;21.006;2023-06-14T09:56:49;24.04;49.50
68128;SHT30;54931;52.098;21.006;2023-06-14T09:59:21;24.12;49.44
68128;SHT30;54931;52.098;21.006;2023-06-14T10:01:57;24.17;49.09
68128;SHT30;54931;52.098;21.006;2023-06-14T10:04:30;24.31;50.05
68128;SHT30;54931;52.098;21.006;2023-06-14T10:07:01;24.60;49.39
68128;SHT30;54931;52.098;21.006;2023-06-14T10:09:30;24.75;48.03
68128;SHT30;54931;52.098;21.006;2023-06-14T10:12:01;24.76;47.49
68128;SHT30;54931;52.098;21.006;2023-06-14T10:14:29;24.82;48.07
68128;SHT30;54931;52.098;21.006;2023-06-14T10:17:12;24.97;47.67
68128;SHT30;54931;52.098;21.006;2023-06-14T10:19:54;24.90;47.43
68128;SHT30;54931;52.098;21.006;2023-06-14T10:22:51;24.74;45.85
68128;SHT30;54931;52.098;21.006;2023-06-14T10:25:29;24.44;46.50
68128;SHT30;54931;52.098;21.006;2023-06-14T10:28:02;24.35;47.19
68128;SHT30;54931;52.098;21.006;2023-06-14T10:31:02;24.37;46.77
68128;SHT30;54931;52.098;21.006;2023-06-14T10:33:50;24.49;46.21
68128;SHT30;54931;52.098;21.006;2023-06-14T10:36:28;24.78;45.72
68128;SHT30;54931;52.098;21.006;2023-06-14T10:41:27;24.78;45.29
68128;SHT30;54931;52.098;21.006;2023-06-14T10:46:49;24.81;46.28
68128;SHT30;54931;52.098;21.006;2023-06-14T10:49:19;24.85;45.95
68128;SHT30;54931;52.098;21.006;2023-06-14T10:52:09;24.97;45.46
68128;SHT30;54931;52.098;21.006;2023-06-14T10:57:36;24.75;44.36
68128;SHT30;54931;52.098;21.006;2023-06-14T11:00:23;24.68;44.60
68128;SHT30;54931;52.098;21.006;2023-06-14T11:11:09;24.43;45.73
68128;SHT30;54931;52.098;21.006;2023-06-14T11:13:46;24.43;44.92
68128;SHT30;54931;52.098;21.006;2023-06-14T11:16:14;24.22;45.59
68128;SHT30;54931;52.098;21.006;2023-06-14T11:18:44;24.14;44.48
68128;SHT30;54931;52.098;21.006;2023-06-14T11:21:16;23.80;44.04
68128;SHT30;54931;52.098;21.006;2023-06-14T11:23:49;23.38;45.31
68128;SHT30;54931;52.098;21.006;2023-06-14T11:26:25;23.06;46.93
68128;SHT30;54931;52.098;21.006;2023-06-14T11:28:58;22.74;48.23
68128;SHT30;54931;52.098;21.006;2023-06-14T11:31:27;22.43;49.27
68128;SHT30;54931;52.098;21.006;2023-06-14T11:33:56;22.16;50.07
68128;SHT30;54931;52.098;21.006;2023-06-14T11:36:27;21.95;50.88
68128;SHT30;54931;52.098;21.006;2023-06-14T11:38:57;21.73;51.59
68128;SHT30;54931;52.098;21.006;2023-06-14T11:41:32;21.55;51.65
68128;SHT30;54931;52.098;21.006;2023-06-14T11:44:11;21.36;52.65
68128;SHT30;54931;52.098;21.006;2023-06-14T11:46:39;21.33;53.04
68128;SHT30;54931;52.098;21.006;2023-06-14T11:49:07;21.31;53.33
68128;SHT30;54931;52.098;21.006;2023-06-14T11:51:36;21.35;53.32
68128;SHT30;54931;52.098;21.006;2023-06-14T11:54:05;21.38;53.45
68128;SHT30;54931;52.098;21.006;2023-06-14T11:56:36;21.38;53.63
68128;SHT30;54931;52.098;21.006;2023-06-14T11:59:05;21.40;51.83
68128;SHT30;54931;52.098;21.006;2023-06-14T12:01:35;21.50;53.38
68128;SHT30;54931;52.098;21.006;2023-06-14T12:04:06;21.68;51.44
68128;SHT30;54931;52.098;21.006;2023-06-14T12:06:34;21.73;49.95
68128;SHT30;54931;52.098;21.006;2023-06-14T12:09:06;21.56;49.41
68128;SHT30;54931;52.098;21.006;2023-06-14T12:11:40;21.45;50.45
68128;SHT30;54931;52.098;21.006;2023-06-14T12:14:08;21.39;51.12
68128;SHT30;54931;52.098;21.006;2023-06-14T12:16:39;21.35;51.80
68128;SHT30;54931;52.098;21.006;2023-06-14T12:19:14;21.46;50.71
68128;SHT30;54931;52.098;21.006;2023-06-14T12:21:47;21.57;50.34
68128;SHT30;54931;52.098;21.006;2023-06-14T12:24:15;21.70;49.61
68128;SHT30;54931;52.098;21.006;2023-06-14T12:26:43;21.71;49.68
68128;SHT30;54931;52.098;21.006;2023-06-14T12:29:12;21.76;49.54
68128;SHT30;54931;52.098;21.006;2023-06-14T12:31:40;21.74;49.86
68128;SHT30;54931;52.098;21.006;2023-06-14T12:34:08;21.82;49.39
68128;SHT30;54931;52.098;21.006;2023-06-14T12:36:37;21.93;49.51
68128;SHT30;54931;52.098;21.006;2023-06-14T12:39:09;22.28;48.60
68128;SHT30;54931;52.098;21.006;2023-06-14T12:41:37;22.52;47.35
68128;SHT30;54931;52.098;21.006;2023-06-14T12:44:05;22.56;46.61
68128;SHT30;54931;52.098;21.006;2023-06-14T12:46:32;22.42;46.96
68128;SHT30;54931;52.098;21.006;2023-06-14T12:49:02;22.27;47.14
68128;SHT30;54931;52.098;21.006;2023-06-14T12:51:30;22.31;46.67
68128;SHT30;54931;52.098;21.006;2023-06-14T12:53:58;22.49;46.68
68128;SHT30;54931;52.098;21.006;2023-06-14T12:56:26;22.74;45.69
68128;SHT30;54931;52.098;21.006;2023-06-14T12:58:54;22.89;44.52
68128;SHT30;54931;52.098;21.006;2023-06-14T13:01:22;22.98;44.74
68128;SHT30;54931;52.098;21.006;2023-06-14T13:03:50;23.08;44.77
68128;SHT30;54931;52.098;21.006;2023-06-14T13:06:21;23.00;44.74
68128;SHT30;54931;52.098;21.006;2023-06-14T13:08:52;23.01;45.24
68128;SHT30;54931;52.098;21.006;2023-06-14T13:11:22;23.10;44.86
68128;SHT30;54931;52.098;21.006;2023-06-14T13:13:50;23.17;45.22
68128;SHT30;54931;52.098;21.006;2023-06-14T13:16:18;23.15;44.96
68128;SHT30;54931;52.098;21.006;2023-06-14T13:18:45;22.91;45.15
68128;SHT30;54931;52.098;21.006;2023-06-14T13:21:13;22.67;45.56
68128;SHT30;54931;52.098;21.006;2023-06-14T13:23:41;22.61;45.61
68128;SHT30;54931;52.098;21.006;2023-06-14T13:26:09;22.65;44.94
68128;SHT30;54931;52.098;21.006;2023-06-14T13:28:37;22.61;45.59
68128;SHT30;54931;52.098;21.006;2023-06-14T13:31:05;22.60;45.13
68128;SHT30;54931;52.098;21.006;2023-06-14T13:33:33;22.59;45.22
68128;SHT30;54931;52.098;21.006;2023-06-14T13:36:00;22.63;45.33
68128;SHT30;54931;52.098;21.006;2023-06-14T13:38:30;22.57;44.27
68128;SHT30;54931;52.098;21.006;2023-06-14T13:40:58;22.49;44.31
68128;SHT30;54931;52.098;21.006;2023-06-14T13:43:26;22.58;44.67
68128;SHT30;54931;52.098;21.006;2023-06-14T13:45:54;22.80;44.92
68128;SHT30;54931;52.098;21.006;2023-06-14T13:48:22;22.86;43.85
68128;SHT30;54931;52.098;21.006;2023-06-14T13:50:50;22.72;43.36
68128;SHT30;54931;52.098;21.006;2023-06-14T13:53:18;22.70;44.30
68128;SHT30;54931;52.098;21.006;2023-06-14T13:55:45;22.91;44.48
68128;SHT30;54931;52.098;21.006;2023-06-14T13:58:13;22.96;44.40
68128;SHT30;54931;52.098;21.006;2023-06-14T14:00:42;22.96;44.59
68128;SHT30;54931;52.098;21.006;2023-06-14T14:03:10;23.02;44.35
68128;SHT30;54931;52.098;21.006;2023-06-14T14:05:38;23.08;43.96
68128;SHT30;54931;52.098;21.006;2023-06-14T14:08:07;23.12;44.44
68128;SHT30;54931;52.098;21.006;2023-06-14T14:10:35;23.20;44.78
68128;SHT30;54931;52.098;21.006;2023-06-14T14:13:02;23.30;44.24
68128;SHT30;54931;52.098;21.006;2023-06-14T14:15:31;23.19;43.39
68128;SHT30;54931;52.098;21.006;2023-06-14T14:18:01;22.88;43.43
68128;SHT30;54931;52.098;21.006;2023-06-14T14:20:30;22.60;43.97
68128;SHT30;54931;52.098;21.006;2023-06-14T14:22:59;22.41;45.20
68128;SHT30;54931;52.098;21.006;2023-06-14T14:25:27;22.45;45.48
68128;SHT30;54931;52.098;21.006;2023-06-14T14:27:55;22.54;45.36
68128;SHT30;54931;52.098;21.006;2023-06-14T14:30:23;22.59;44.57
68128;SHT30;54931;52.098;21.006;2023-06-14T14:32:51;22.47;43.86
68128;SHT30;54931;52.098;21.006;2023-06-14T14:35:19;22.32;44.35
68128;SHT30;54931;52.098;21.006;2023-06-14T14:37:47;22.29;44.36
68128;SHT30;54931;52.098;21.006;2023-06-14T14:40:15;22.30;44.98
68128;SHT30;54931;52.098;21.006;2023-06-14T14:42:43;22.33;45.11
68128;SHT30;54931;52.098;21.006;2023-06-14T14:45:10;22.41;45.29
68128;SHT30;54931;52.098;21.006;2023-06-14T14:47:39;22.42;45.24
68128;SHT30;54931;52.098;21.006;2023-06-14T14:50:07;22.42;45.43
68128;SHT30;54931;52.098;21.006;2023-06-14T14:52:36;22.35;45.31
68128;SHT30;54931;52.098;21.006;2023-06-14T14:55:04;22.25;45.46
68128;SHT30;54931;52.098;21.006;2023-06-14T14:57:33;22.05;45.54
68128;SHT30;54931;52.098;21.006;2023-06-14T15:00:02;22.05;46.02
68128;SHT30;54931;52.098;21.006;2023-06-14T15:02:33;22.24;46.07
68128;SHT30;54931;52.098;21.006;2023-06-14T15:05:01;22.58;45.62
68128;SHT30;54931;52.098;21.006;2023-06-14T15:07:30;22.93;45.47
68128;SHT30;54931;52.098;21.006;2023-06-14T15:10:00;23.16;44.65
68128;SHT30;54931;52.098;21.006;2023-06-14T15:12:29;23.30;44.06
68128;SHT30;54931;52.098;21.006;2023-06-14T15:14:57;23.33;43.67
68128;SHT30;54931;52.098;21.006;2023-06-14T15:17:25;23.15;43.48
68128;SHT30;54931;52.098;21.006;2023-06-14T15:19:53;23.03;43.78
68128;SHT30;54931;52.098;21.006;2023-06-14T15:22:21;23.00;43.87
68128;SHT30;54931;52.098;21.006;2023-06-14T15:24:49;22.88;43.46
68128;SHT30;54931;52.098;21.006;2023-06-14T15:27:17;22.71;43.86
68128;SHT30;54931;52.098;21.006;2023-06-14T15:29:45;22.85;43.78
68128;SHT30;54931;52.098;21.006;2023-06-14T15:32:13;22.98;42.65
68128;SHT30;54931;52.098;21.006;2023-06-14T15:34:41;22.89;42.90
68128;SHT30;54931;52.098;21.006;2023-06-14T15:37:09;23.12;43.48
68128;SHT30;54931;52.098;21.006;2023-06-14T15:39:37;23.46;42.83
68128;SHT30;54931;52.098;21.006;2023-06-14T15:42:04;23.55;42.56
68128;SHT30;54931;52.098;21.006;2023-06-14T15:44:34;23.33;42.26
68128;SHT30;54931;52.098;21.006;2023-06-14T15:47:03;23.12;43.30
68128;SHT30;54931;52.098;21.006;2023-06-14T15:49:31;22.95;43.55